Time;durP1;ratioP1;P1;durP2;ratioP2;P2;SDS_P1;SDS_P2;PMS_P1;PMS_P2;Temp;Humidity;BMP_temperature;BMP_pressure;BME280_temperature;BME280_humidity;BME280_pressure;Samples;Min_cycle;Max_cycle;Signal;HPM_P1;HPM_P2
2024/01/17 00:00:09;;;;;;;1.20;1.10;;;1.70;99.90;;;;;;7390250;19;20143;-81
2024/01/17 00:02:35;;;;;;;1.10;1.10;;;1.80;99.90;;;;;;7391989;19;20202;-80
2024/01/17 00:05:00;;;;;;;1.20;1.00;;;1.20;99.90;;;;;;7389363;19;20150;-81
2024/01/17 00:07:26;;;;;;;0.90;0.90;;;1.00;99.90;;;;;;7391821;19;20270;-79
2024/01/17 00:09:52;;;;;;;1.77;1.33;;;0.90;99.90;;;;;;7391436;19;20142;-80
2024/01/17 00:12:17;;;;;;;2.00;1.80;;;1.30;99.90;;;;;;7391007;19;20201;-80
2024/01/17 00:14:43;;;;;;;1.73;1.63;;;1.60;99.90;;;;;;7392829;19;20122;-82
2024/01/17 00:17:09;;;;;;;1.40;1.30;;;1.60;99.90;;;;;;7390648;19;20131;-81
2024/01/17 00:19:35;;;;;;;1.23;1.03;;;1.70;99.90;;;;;;7388897;19;20172;-81
2024/01/17 00:22:01;;;;;;;0.60;0.60;;;1.60;99.90;;;;;;7391711;19;20597;-81
2024/01/17 00:24:27;;;;;;;1.70;1.30;;;1.80;99.90;;;;;;7390367;19;20159;-80
2024/01/17 00:26:52;;;;;;;2.10;1.53;;;1.80;99.90;;;;;;7390334;19;20150;-81
2024/01/17 00:29:19;;;;;;;3.13;1.63;;;1.60;99.90;;;;;;7390303;19;20145;-80
2024/01/17 00:31:46;;;;;;;1.73;1.00;;;1.60;99.90;;;;;;7391376;19;20130;-80
2024/01/17 00:34:12;;;;;;;2.47;1.10;;;1.70;99.90;;;;;;7390307;19;20141;-80
2024/01/17 00:36:38;;;;;;;3.20;0.70;;;1.40;99.90;;;;;;7389082;19;20210;-80
2024/01/17 00:39:03;;;;;;;1.47;1.00;;;1.30;99.90;;;;;;7390612;19;20142;-81
2024/01/17 00:41:29;;;;;;;1.10;0.90;;;1.50;99.90;;;;;;7388827;19;20132;-80
2024/01/17 00:43:55;;;;;;;1.13;0.70;;;1.60;99.90;;;;;;7390049;19;20134;-81
2024/01/17 00:46:22;;;;;;;0.93;0.93;;;1.60;99.90;;;;;;7391143;19;20219;-78
2024/01/17 00:48:47;;;;;;;1.40;1.30;;;1.70;99.90;;;;;;7388078;19;20161;-80
2024/01/17 00:51:23;;;;;;;1.57;0.90;;;1.60;99.90;;;;;;7388917;19;20677;-80
2024/01/17 00:53:53;;;;;;;1.30;0.97;;;1.60;99.90;;;;;;7390653;19;20142;-81
2024/01/17 00:56:21;;;;;;;0.90;0.77;;;1.60;99.90;;;;;;7389254;19;20619;-81
2024/01/17 00:58:46;;;;;;;1.27;1.00;;;1.60;99.90;;;;;;7390384;19;20157;-81
2024/01/17 01:01:12;;;;;;;1.47;1.23;;;1.60;99.90;;;;;;7388480;19;20146;-80
2024/01/17 01:03:38;;;;;;;0.80;0.67;;;1.50;99.90;;;;;;7388795;19;20150;-81
2024/01/17 01:06:05;;;;;;;1.47;0.87;;;1.30;99.90;;;;;;7389242;19;20155;-81
2024/01/17 01:08:30;;;;;;;4.77;1.17;;;1.00;99.90;;;;;;7390522;19;20235;-81
2024/01/17 01:10:56;;;;;;;1.80;1.47;;;1.10;99.90;;;;;;7390393;19;20599;-79
2024/01/17 01:13:23;;;;;;;1.20;1.20;;;1.40;99.90;;;;;;7388949;19;20151;-80
2024/01/17 01:15:49;;;;;;;1.53;1.33;;;1.60;99.90;;;;;;7389571;19;20138;-81
2024/01/17 01:18:15;;;;;;;2.80;1.67;;;1.70;99.90;;;;;;7390334;19;20148;-80
2024/01/17 01:20:41;;;;;;;1.10;1.00;;;1.80;99.90;;;;;;7391088;19;20165;-80
2024/01/17 01:23:07;;;;;;;1.20;1.10;;;1.80;99.90;;;;;;7388603;19;20459;-79
2024/01/17 01:25:32;;;;;;;1.40;1.00;;;1.80;99.90;;;;;;7393859;19;20146;-80
2024/01/17 01:27:58;;;;;;;0.83;0.83;;;1.80;99.90;;;;;;7396193;19;20633;-81
2024/01/17 01:30:24;;;;;;;2.53;1.53;;;1.60;99.90;;;;;;7395027;19;20213;-79
2024/01/17 01:32:50;;;;;;;1.50;1.33;;;1.70;99.90;;;;;;7397205;19;20135;-80
2024/01/17 01:35:15;;;;;;;1.17;1.07;;;1.60;99.90;;;;;;7395635;19;20147;-78
2024/01/17 01:37:42;;;;;;;0.80;0.70;;;1.60;99.90;;;;;;7394874;19;20147;-81
2024/01/17 01:40:08;;;;;;;1.80;1.60;;;1.70;99.90;;;;;;7394499;19;20218;-79
2024/01/17 01:42:34;;;;;;;1.27;1.07;;;1.80;99.90;;;;;;7396586;19;20250;-80
2024/01/17 01:45:00;;;;;;;1.37;1.27;;;1.90;99.90;;;;;;7396040;19;20131;-79
2024/01/17 01:47:27;;;;;;;1.07;1.00;;;2.00;99.90;;;;;;7396321;19;20131;-81
2024/01/17 01:49:53;;;;;;;0.50;0.50;;;1.90;99.90;;;;;;7393680;19;20150;-80
2024/01/17 01:52:20;;;;;;;2.50;1.13;;;1.80;99.90;;;;;;7396836;19;20583;-80
2024/01/17 01:54:47;;;;;;;1.60;1.50;;;0.90;99.90;;;;;;7399059;19;20261;-81
2024/01/17 01:57:14;;;;;;;0.90;0.90;;;0.80;99.90;;;;;;7394599;19;20150;-81
2024/01/17 01:59:41;;;;;;;0.90;0.80;;;0.70;99.90;;;;;;7395715;19;20596;-81
2024/01/17 02:02:07;;;;;;;1.33;1.23;;;1.10;99.90;;;;;;7395302;19;20579;-80
2024/01/17 02:04:36;;;;;;;2.43;1.53;;;1.10;99.90;;;;;;7394387;19;20178;-80
2024/01/17 02:07:03;;;;;;;1.20;1.10;;;1.50;99.90;;;;;;7393569;19;20151;-79
2024/01/17 02:09:30;;;;;;;1.07;1.07;;;1.60;99.90;;;;;;7396604;19;20131;-81
2024/01/17 02:11:57;;;;;;;1.40;1.30;;;1.90;99.90;;;;;;7396137;19;20130;-80
2024/01/17 02:14:24;;;;;;;1.70;1.50;;;2.00;99.90;;;;;;7394346;19;20142;-80
2024/01/17 02:16:50;;;;;;;0.70;0.70;;;1.50;99.90;;;;;;7394531;19;20130;-80
2024/01/17 02:19:17;;;;;;;1.33;1.23;;;0.50;99.90;;;;;;7393699;19;20138;-80
2024/01/17 02:21:43;;;;;;;1.77;1.50;;;0.60;99.90;;;;;;7394976;19;20218;-80
2024/01/17 02:24:16;;;;;;;0.83;0.83;;;1.10;99.90;;;;;;7396778;19;20130;-81
2024/01/17 02:26:42;;;;;;;1.67;1.33;;;1.50;99.90;;;;;;7394624;19;20155;-79
2024/01/17 02:29:08;;;;;;;1.43;0.73;;;1.50;99.90;;;;;;7393736;19;20610;-81
2024/01/17 02:31:35;;;;;;;0.87;0.80;;;1.10;99.90;;;;;;7393091;19;20206;-80
2024/01/17 02:34:01;;;;;;;1.33;1.23;;;1.00;99.90;;;;;;7397414;19;20627;-81
2024/01/17 02:36:27;;;;;;;0.70;0.70;;;1.20;99.90;;;;;;7389361;19;20153;-80
2024/01/17 02:38:52;;;;;;;0.73;0.73;;;1.40;99.90;;;;;;7393527;19;20707;-79
2024/01/17 02:41:18;;;;;;;1.10;0.97;;;1.60;99.90;;;;;;7394674;19;20142;-80
2024/01/17 02:43:47;;;;;;;1.30;1.17;;;1.80;99.90;;;;;;7396349;19;20122;-79
2024/01/17 02:46:13;;;;;;;3.63;1.60;;;1.70;99.90;;;;;;7395793;19;20227;-80
2024/01/17 02:48:39;;;;;;;0.60;0.60;;;2.00;99.90;;;;;;7395101;19;20182;-80
2024/01/17 02:51:05;;;;;;;1.77;1.63;;;2.00;99.90;;;;;;7391605;19;20146;-81
2024/01/17 02:53:31;;;;;;;0.93;0.80;;;2.20;99.90;;;;;;7393982;19;20153;-80
2024/01/17 02:55:56;;;;;;;1.13;1.10;;;1.90;99.90;;;;;;7393369;19;20143;-80
2024/01/17 02:58:22;;;;;;;1.03;0.93;;;1.90;99.90;;;;;;7395297;19;20138;-79
2024/01/17 03:00:48;;;;;;;0.80;0.80;;;2.10;99.90;;;;;;7394535;19;20128;-79
2024/01/17 03:03:16;;;;;;;1.27;1.07;;;2.20;99.90;;;;;;7390162;19;20150;-80
2024/01/17 03:05:42;;;;;;;1.73;1.00;;;2.20;99.90;;;;;;7392623;19;20168;-80
2024/01/17 03:08:08;;;;;;;1.03;1.03;;;2.20;99.90;;;;;;7395201;19;20174;-80
2024/01/17 03:10:35;;;;;;;2.27;1.47;;;2.10;99.90;;;;;;7392981;19;20146;-80
2024/01/17 03:13:01;;;;;;;1.20;1.10;;;2.10;99.90;;;;;;7391277;19;20142;-80
2024/01/17 03:15:26;;;;;;;2.33;1.40;;;2.00;99.90;;;;;;7393030;19;20284;-79
2024/01/17 03:17:52;;;;;;;0.80;0.80;;;2.00;99.90;;;;;;7391203;19;20171;-80
2024/01/17 03:20:18;;;;;;;0.87;0.80;;;1.70;99.90;;;;;;7391425;19;20150;-82
2024/01/17 03:22:44;;;;;;;1.93;1.83;;;1.40;99.90;;;;;;7393459;19;20800;-81
2024/01/17 03:25:10;;;;;;;0.87;0.80;;;1.00;99.90;;;;;;7394088;19;20139;-79
2024/01/17 03:27:36;;;;;;;0.83;0.73;;;1.20;99.90;;;;;;7393534;19;20616;-81
2024/01/17 03:30:07;;;;;;;1.53;1.43;;;1.50;99.90;;;;;;7390818;19;20150;-81
2024/01/17 03:32:32;;;;;;;1.53;1.43;;;1.70;99.90;;;;;;7394059;19;20143;-81
2024/01/17 03:34:59;;;;;;;1.43;1.27;;;1.70;99.90;;;;;;7391514;19;20559;-80
2024/01/17 03:37:25;;;;;;;1.70;1.13;;;1.80;99.90;;;;;;7392157;19;20138;-80
2024/01/17 03:39:51;;;;;;;1.23;1.00;;;1.80;99.90;;;;;;7390870;19;20150;-80
2024/01/17 03:42:16;;;;;;;1.43;1.33;;;1.80;99.90;;;;;;7392722;19;20138;-80
2024/01/17 03:44:46;;;;;;;0.60;0.60;;;1.80;99.90;;;;;;7392328;19;20577;-81
2024/01/17 03:47:12;;;;;;;1.17;1.07;;;1.80;99.90;;;;;;7393171;19;20656;-80
2024/01/17 03:49:38;;;;;;;0.80;0.80;;;1.80;99.90;;;;;;7390407;19;20181;-81
2024/01/17 03:52:10;;;;;;;0.90;0.87;;;1.80;99.90;;;;;;7391257;19;20127;-79
2024/01/17 03:54:39;;;;;;;2.20;0.90;;;1.70;99.90;;;;;;7391939;19;20159;-80
2024/01/17 03:57:05;;;;;;;0.70;0.70;;;1.50;99.90;;;;;;7389779;19;20138;-79
2024/01/17 03:59:31;;;;;;;1.57;1.47;;;1.40;99.90;;;;;;7390653;19;20150;-79
2024/01/17 04:01:56;;;;;;;1.17;1.00;;;1.60;99.90;;;;;;7391868;19;20619;-81
2024/01/17 04:04:22;;;;;;;2.10;1.90;;;1.80;99.90;;;;;;7391114;19;20346;-81
2024/01/17 04:06:48;;;;;;;3.57;1.60;;;1.90;99.90;;;;;;7391119;19;20608;-80
2024/01/17 04:09:14;;;;;;;2.73;1.07;;;2.10;99.90;;;;;;7392106;19;20202;-80
2024/01/17 04:11:39;;;;;;;1.30;1.20;;;2.00;99.90;;;;;;7390961;19;20206;-79
2024/01/17 04:14:06;;;;;;;1.40;1.17;;;1.90;99.90;;;;;;7391841;19;20146;-81
2024/01/17 04:16:34;;;;;;;2.07;1.43;;;2.00;99.90;;;;;;7391407;19;20262;-80
2024/01/17 04:19:00;;;;;;;1.43;1.33;;;2.00;99.90;;;;;;7391077;19;20131;-81
2024/01/17 04:21:26;;;;;;;1.63;1.40;;;1.90;99.90;;;;;;7392737;19;20179;-80
2024/01/17 04:23:51;;;;;;;3.10;1.37;;;2.10;99.90;;;;;;7392444;19;20504;-81
2024/01/17 04:26:25;;;;;;;0.90;0.90;;;1.80;99.90;;;;;;7390560;19;20134;-80
2024/01/17 04:28:51;;;;;;;1.07;0.97;;;1.70;99.90;;;;;;7391351;19;20135;-79
2024/01/17 04:31:31;;;;;;;0.73;0.73;;;1.90;99.90;;;;;;7390248;19;20146;-79
2024/01/17 04:33:58;;;;;;;1.10;0.97;;;2.10;99.90;;;;;;7391420;19;20809;-81
2024/01/17 04:36:27;;;;;;;0.70;0.70;;;2.10;99.90;;;;;;7389027;19;20138;-81
2024/01/17 04:38:53;;;;;;;1.97;1.30;;;2.20;99.90;;;;;;7389930;19;20134;-81
2024/01/17 04:41:20;;;;;;;1.23;0.93;;;1.80;99.90;;;;;;7391673;19;20198;-81
2024/01/17 04:43:46;;;;;;;1.57;1.43;;;1.80;99.90;;;;;;7392068;19;20134;-82
2024/01/17 04:46:13;;;;;;;1.03;0.97;;;2.00;99.90;;;;;;7391272;19;20489;-81
2024/01/17 04:48:40;;;;;;;2.07;1.80;;;2.10;99.90;;;;;;7391624;19;20149;-82
2024/01/17 04:51:06;;;;;;;0.73;0.73;;;1.70;99.90;;;;;;7388972;19;20150;-82
2024/01/17 04:53:33;;;;;;;3.23;1.40;;;1.70;99.90;;;;;;7389766;19;20169;-82
2024/01/17 04:55:59;;;;;;;1.87;1.60;;;2.00;99.90;;;;;;7391354;19;20173;-82
2024/01/17 04:58:30;;;;;;;1.50;1.30;;;2.20;99.90;;;;;;7392000;19;20142;-81
2024/01/17 05:00:56;;;;;;;1.13;0.90;;;2.40;99.90;;;;;;7394837;19;20234;-81
2024/01/17 05:03:21;;;;;;;0.77;0.77;;;2.40;99.90;;;;;;7396873;19;20142;-80
2024/01/17 05:05:47;;;;;;;1.17;1.13;;;2.40;99.90;;;;;;7395391;19;20559;-81
2024/01/17 05:08:13;;;;;;;1.47;1.37;;;2.40;99.90;;;;;;7400535;19;20145;-81
2024/01/17 05:10:46;;;;;;;2.10;1.50;;;2.40;99.90;;;;;;7398589;19;20142;-81
2024/01/17 05:13:12;;;;;;;1.33;1.23;;;2.50;99.90;;;;;;7397225;19;20238;-79
2024/01/17 05:15:39;;;;;;;1.77;1.63;;;2.50;99.90;;;;;;7398673;19;20147;-80
2024/01/17 05:18:06;;;;;;;1.70;1.60;;;2.40;99.90;;;;;;7393536;19;20147;-80
2024/01/17 05:20:32;;;;;;;0.70;0.70;;;2.50;99.90;;;;;;7395558;19;20244;-79
2024/01/17 05:22:58;;;;;;;1.07;1.00;;;2.40;99.90;;;;;;7397899;19;20135;-80
2024/01/17 05:25:24;;;;;;;1.33;1.13;;;2.30;99.90;;;;;;7396479;19;20218;-78
2024/01/17 05:27:52;;;;;;;0.50;0.50;;;2.20;99.90;;;;;;7396139;19;20151;-79
2024/01/17 05:30:23;;;;;;;1.47;1.30;;;2.00;99.90;;;;;;7396012;19;20235;-80
2024/01/17 05:32:49;;;;;;;0.80;0.77;;;2.30;99.90;;;;;;7395885;19;20580;-81
2024/01/17 05:35:19;;;;;;;2.63;2.23;;;2.10;99.90;;;;;;7398059;19;20138;-80
2024/01/17 05:37:45;;;;;;;1.37;1.17;;;2.00;99.90;;;;;;7393820;19;20126;-79
2024/01/17 05:40:12;;;;;;;3.30;2.63;;;2.30;99.90;;;;;;7397864;19;20123;-81
2024/01/17 05:42:40;;;;;;;1.50;1.40;;;2.40;99.90;;;;;;7395862;19;20135;-81
2024/01/17 05:45:07;;;;;;;1.57;1.30;;;2.50;99.90;;;;;;7396385;19;20149;-80
2024/01/17 05:47:35;;;;;;;1.80;1.20;;;2.30;99.90;;;;;;7397194;19;20515;-81
2024/01/17 05:50:03;;;;;;;1.40;1.30;;;2.30;99.90;;;;;;7396076;19;20150;-82
2024/01/17 05:52:29;;;;;;;0.80;0.80;;;2.10;99.90;;;;;;7398060;19;20155;-80
2024/01/17 05:54:55;;;;;;;2.00;1.60;;;2.20;99.90;;;;;;7394321;19;20131;-81
2024/01/17 05:57:20;;;;;;;1.63;1.53;;;2.50;99.90;;;;;;7393558;19;20612;-80
2024/01/17 05:59:46;;;;;;;2.47;1.73;;;2.50;99.90;;;;;;7395433;19;20141;-80
2024/01/17 06:02:12;;;;;;;2.13;1.93;;;2.40;99.90;;;;;;7396593;19;20206;-80
2024/01/17 06:04:40;;;;;;;1.77;1.67;;;2.10;99.90;;;;;;7393452;19;20544;-80
2024/01/17 06:07:06;;;;;;;1.63;1.33;;;2.30;99.90;;;;;;7395293;19;20138;-80
2024/01/17 06:09:32;;;;;;;3.70;1.23;;;2.50;99.90;;;;;;7397077;19;20127;-81
2024/01/17 06:11:58;;;;;;;1.90;1.77;;;2.60;99.90;;;;;;7397128;19;20138;-82
2024/01/17 06:14:23;;;;;;;0.90;0.90;;;2.70;99.90;;;;;;7394803;19;20146;-80
2024/01/17 06:16:49;;;;;;;1.50;1.40;;;2.80;99.90;;;;;;7395767;19;20126;-82
2024/01/17 06:19:16;;;;;;;1.00;1.00;;;2.80;99.90;;;;;;7395895;19;20198;-82
2024/01/17 06:21:42;;;;;;;2.07;1.47;;;2.80;99.90;;;;;;7396199;19;20141;-80
2024/01/17 06:24:08;;;;;;;0.80;0.80;;;2.80;99.90;;;;;;7396829;19;20134;-82
2024/01/17 06:26:34;;;;;;;2.43;2.23;;;2.90;99.90;;;;;;7396786;19;20132;-81
2024/01/17 06:28:59;;;;;;;2.83;2.63;;;2.90;99.90;;;;;;7397804;19;20134;-81
2024/01/17 06:31:25;;;;;;;1.40;1.30;;;2.80;99.90;;;;;;7394525;19;20130;-81
2024/01/17 06:33:52;;;;;;;1.43;1.33;;;2.90;99.90;;;;;;7395759;19;20134;-78
2024/01/17 06:36:17;;;;;;;2.17;1.67;;;2.90;99.90;;;;;;7392164;19;20503;-80
2024/01/17 06:38:46;;;;;;;1.87;1.77;;;3.00;99.90;;;;;;7394886;19;20122;-81
2024/01/17 06:41:12;;;;;;;1.50;1.40;;;2.90;99.90;;;;;;7395408;19;20150;-82
2024/01/17 06:43:39;;;;;;;1.40;1.27;;;3.00;99.90;;;;;;7394774;19;20618;-83
2024/01/17 06:46:05;;;;;;;2.20;1.63;;;3.00;99.90;;;;;;7394117;19;20141;-83
2024/01/17 06:48:31;;;;;;;1.37;1.27;;;3.00;99.90;;;;;;7396177;19;20139;-84
2024/01/17 06:50:57;;;;;;;1.00;1.00;;;3.00;99.90;;;;;;7392538;19;20167;-84
2024/01/17 06:53:23;;;;;;;1.73;1.63;;;3.10;99.90;;;;;;7394258;19;20142;-84
2024/01/17 06:55:49;;;;;;;1.97;1.87;;;3.20;99.90;;;;;;7397352;19;20142;-84
2024/01/17 06:58:15;;;;;;;1.57;1.47;;;3.20;99.90;;;;;;7394557;19;20138;-86
2024/01/17 07:00:41;;;;;;;1.07;1.03;;;3.20;99.90;;;;;;7394686;19;20135;-81
2024/01/17 07:03:07;;;;;;;1.43;0.93;;;3.30;99.90;;;;;;7397096;19;20157;-84
2024/01/17 07:05:33;;;;;;;2.67;1.53;;;3.30;99.90;;;;;;7397766;19;20178;-82
2024/01/17 07:07:59;;;;;;;1.80;1.70;;;3.40;99.90;;;;;;7396988;19;20595;-83
2024/01/17 07:10:24;;;;;;;1.47;1.37;;;3.40;99.90;;;;;;7396551;19;20138;-83
2024/01/17 07:12:53;;;;;;;1.93;1.83;;;3.30;99.90;;;;;;7394155;19;20199;-80
2024/01/17 07:15:19;;;;;;;1.30;1.20;;;3.40;99.90;;;;;;7394192;19;20142;-85
2024/01/17 07:17:46;;;;;;;1.13;1.00;;;3.40;99.90;;;;;;7394028;19;20150;-86
2024/01/17 07:20:12;;;;;;;2.00;1.90;;;3.40;99.90;;;;;;7393309;19;20138;-85
2024/01/17 07:22:41;;;;;;;2.57;1.50;;;3.50;99.90;;;;;;7398199;19;20568;-85
2024/01/17 07:25:12;;;;;;;1.13;0.83;;;3.40;99.90;;;;;;7401432;19;20126;-84
2024/01/17 07:27:44;;;;;;;1.80;1.47;;;3.50;99.90;;;;;;7397613;19;20143;-85
2024/01/17 07:30:11;;;;;;;2.20;1.27;;;3.40;99.90;;;;;;7398177;19;20194;-83
2024/01/17 07:32:38;;;;;;;1.17;1.07;;;3.50;99.90;;;;;;7399723;19;20566;-81
2024/01/17 07:35:06;;;;;;;1.93;1.50;;;3.40;99.90;;;;;;7395391;19;20166;-82
2024/01/17 07:37:35;;;;;;;1.17;1.07;;;3.40;99.90;;;;;;7394412;19;20194;-81
2024/01/17 07:40:01;;;;;;;1.17;1.13;;;3.50;99.90;;;;;;7406334;19;20130;-86
2024/01/17 07:42:27;;;;;;;1.50;1.03;;;3.40;99.90;;;;;;7395111;19;20142;-85
2024/01/17 07:44:52;;;;;;;1.73;1.63;;;3.60;99.90;;;;;;7396429;19;20542;-87
2024/01/17 07:47:18;;;;;;;2.00;1.67;;;3.60;99.90;;;;;;7400540;19;20478;-85
2024/01/17 07:49:46;;;;;;;1.67;1.17;;;3.60;99.90;;;;;;7390696;19;20222;-82
2024/01/17 07:52:11;;;;;;;0.70;0.70;;;3.60;99.90;;;;;;7394847;19;20162;-83
2024/01/17 07:54:40;;;;;;;1.37;0.90;;;3.60;99.90;;;;;;7392549;19;20142;-83
2024/01/17 07:57:06;;;;;;;1.87;1.73;;;3.50;99.90;;;;;;7391775;19;20214;-83
2024/01/17 07:59:32;;;;;;;1.67;1.50;;;3.60;99.90;;;;;;7398663;19;20143;-81
2024/01/17 08:01:58;;;;;;;2.23;1.53;;;3.50;99.90;;;;;;7396509;19;20574;-84
2024/01/17 08:04:24;;;;;;;0.90;0.90;;;3.30;99.90;;;;;;7397031;19;20185;-85
2024/01/17 08:06:49;;;;;;;1.80;1.70;;;3.40;99.90;;;;;;7398545;19;20607;-85
2024/01/17 08:09:21;;;;;;;3.27;2.23;;;3.50;99.90;;;;;;7397035;19;20130;-83
2024/01/17 08:11:55;;;;;;;1.73;1.63;;;3.30;99.90;;;;;;7395858;19;20591;-83
2024/01/17 08:14:22;;;;;;;2.30;1.87;;;3.40;99.90;;;;;;7396150;19;20167;-87
2024/01/17 08:16:48;;;;;;;1.20;1.10;;;3.60;99.90;;;;;;7393544;19;20147;-83
2024/01/17 08:19:14;;;;;;;1.87;1.70;;;3.60;99.90;;;;;;7395840;19;20135;-84
2024/01/17 08:21:47;;;;;;;1.97;1.57;;;3.70;99.90;;;;;;7394953;19;20280;-81
2024/01/17 08:24:14;;;;;;;2.37;1.60;;;3.70;99.90;;;;;;7396426;19;20214;-83
2024/01/17 08:26:40;;;;;;;1.97;1.70;;;3.70;99.90;;;;;;7391928;19;20200;-80
2024/01/17 08:29:06;;;;;;;2.10;1.80;;;3.70;99.90;;;;;;7391415;19;20618;-78
2024/01/17 08:31:32;;;;;;;1.53;1.43;;;3.70;99.90;;;;;;7391909;19;20134;-79
2024/01/17 08:33:58;;;;;;;1.73;1.63;;;3.80;99.90;;;;;;7389437;19;20166;-81
2024/01/17 08:36:30;;;;;;;2.73;2.23;;;3.70;99.90;;;;;;7392385;19;20476;-80
2024/01/17 08:38:57;;;;;;;7.87;1.73;;;3.80;99.90;;;;;;7396222;19;20142;-81
2024/01/17 08:41:23;;;;;;;1.87;1.77;;;3.80;99.90;;;;;;7394305;19;20188;-82
2024/01/17 08:43:49;;;;;;;1.93;1.50;;;3.80;99.90;;;;;;7392440;19;20508;-83
2024/01/17 08:46:15;;;;;;;1.03;0.93;;;3.90;99.90;;;;;;7391222;19;20143;-80
2024/01/17 08:48:41;;;;;;;2.67;2.00;;;3.90;99.90;;;;;;7390755;19;20551;-79
2024/01/17 08:51:08;;;;;;;1.10;1.00;;;3.90;99.90;;;;;;7387498;19;20151;-82
2024/01/17 08:53:34;;;;;;;1.97;1.83;;;3.90;99.90;;;;;;7391272;19;20154;-83
2024/01/17 08:56:05;;;;;;;2.13;1.93;;;3.90;99.90;;;;;;7391667;19;20144;-81
2024/01/17 08:58:32;;;;;;;1.47;1.33;;;3.90;99.90;;;;;;7389700;19;20135;-79
2024/01/17 09:00:58;;;;;;;1.60;1.50;;;4.00;99.90;;;;;;7385854;19;20195;-79
2024/01/17 09:03:32;;;;;;;2.20;1.57;;;4.00;99.90;;;;;;7392610;19;20139;-79
2024/01/17 09:05:57;;;;;;;1.27;1.17;;;4.00;99.90;;;;;;7390638;19;20555;-78
2024/01/17 09:08:23;;;;;;;3.97;2.33;;;4.00;99.90;;;;;;7363710;19;20215;-78
2024/01/17 09:10:49;;;;;;;4.60;2.53;;;4.00;99.90;;;;;;7388012;19;20275;-78
2024/01/17 09:13:17;;;;;;;2.77;2.57;;;4.00;99.90;;;;;;7390080;19;20138;-78
2024/01/17 09:15:45;;;;;;;2.57;2.37;;;4.10;99.90;;;;;;7390037;19;20139;-80
2024/01/17 09:18:11;;;;;;;1.23;1.10;;;4.10;99.90;;;;;;7388700;19;20143;-81
2024/01/17 09:20:37;;;;;;;4.43;3.27;;;4.00;99.90;;;;;;7396736;19;20528;-80
2024/01/17 09:23:03;;;;;;;2.53;2.33;;;4.10;99.90;;;;;;7393322;19;20127;-79
2024/01/17 09:25:29;;;;;;;3.88;2.78;;;4.10;99.90;;;;;;7394561;19;20429;-88
2024/01/17 09:27:55;;;;;;;2.27;2.07;;;4.10;99.90;;;;;;7392477;19;20141;-81
2024/01/17 09:30:21;;;;;;;5.17;2.33;;;4.00;99.90;;;;;;7392367;19;20198;-81
2024/01/17 09:32:47;;;;;;;3.00;2.20;;;4.10;99.90;;;;;;7389031;19;20139;-78
2024/01/17 09:35:18;;;;;;;1.87;1.63;;;4.10;99.90;;;;;;7340671;19;20583;-83
2024/01/17 09:37:44;;;;;;;1.40;1.03;;;4.20;99.90;;;;;;7389001;19;20636;-83
2024/01/17 09:40:12;;;;;;;1.40;1.27;;;4.00;99.90;;;;;;7390325;19;20147;-85
2024/01/17 09:42:40;;;;;;;2.57;1.70;;;4.00;99.90;;;;;;7391566;19;20147;-82
2024/01/17 09:45:10;;;;;;;2.70;2.47;;;4.00;99.90;;;;;;7390894;19;20173;-82
2024/01/17 09:47:41;;;;;;;2.53;2.33;;;4.20;99.90;;;;;;7402218;19;20143;-81
2024/01/17 09:50:07;;;;;;;1.70;1.60;;;4.30;99.90;;;;;;7400900;19;20191;-82
2024/01/17 09:52:34;;;;;;;1.73;1.53;;;4.40;99.90;;;;;;7396669;19;20597;-81
2024/01/17 09:55:00;;;;;;;1.67;1.37;;;4.40;99.90;;;;;;7395402;19;20495;-81
2024/01/17 09:57:28;;;;;;;3.13;2.07;;;4.40;99.90;;;;;;7395172;19;20149;-81
2024/01/17 09:59:58;;;;;;;1.50;1.40;;;4.50;99.90;;;;;;7397318;19;20142;-81
2024/01/17 10:02:27;;;;;;;1.60;1.50;;;4.50;99.90;;;;;;7397318;19;20146;-82
2024/01/17 10:04:58;;;;;;;1.63;1.53;;;4.50;99.90;;;;;;7394488;19;20185;-82
2024/01/17 10:07:23;;;;;;;2.07;1.73;;;4.50;99.90;;;;;;7395112;19;20159;-81
2024/01/17 10:09:50;;;;;;;1.00;0.80;;;4.50;99.90;;;;;;7395666;19;20158;-79
2024/01/17 10:12:19;;;;;;;1.30;1.20;;;4.60;99.90;;;;;;7397069;19;20150;-82
2024/01/17 10:14:46;;;;;;;2.23;1.73;;;4.60;99.90;;;;;;7396600;19;20698;-80
2024/01/17 10:17:12;;;;;;;1.97;1.63;;;4.60;99.90;;;;;;7395290;19;20138;-81
2024/01/17 10:19:37;;;;;;;0.97;0.97;;;4.60;99.90;;;;;;7401384;19;20487;-82
2024/01/17 10:22:06;;;;;;;1.70;1.50;;;4.60;99.90;;;;;;7396569;19;20593;-83
2024/01/17 10:24:35;;;;;;;1.17;1.13;;;4.70;99.90;;;;;;7398930;19;20133;-82
2024/01/17 10:27:06;;;;;;;3.00;1.40;;;4.60;99.90;;;;;;7398317;19;20138;-81
2024/01/17 10:29:37;;;;;;;3.23;1.30;;;4.70;99.90;;;;;;7395366;19;20200;-84
2024/01/17 10:32:03;;;;;;;2.13;1.87;;;4.70;99.90;;;;;;7397287;19;20134;-82
2024/01/17 10:34:29;;;;;;;1.60;1.37;;;4.80;99.90;;;;;;7395987;19;20213;-81
2024/01/17 10:36:55;;;;;;;3.40;2.27;;;4.80;99.90;;;;;;7394061;19;20150;-81
2024/01/17 10:39:22;;;;;;;2.10;1.90;;;4.80;99.90;;;;;;7373947;19;20209;-81
2024/01/17 10:41:49;;;;;;;2.13;1.33;;;4.90;99.90;;;;;;7395844;19;20146;-81
2024/01/17 10:44:18;;;;;;;1.83;1.73;;;4.90;99.90;;;;;;7400671;19;20166;-81
2024/01/17 10:46:48;;;;;;;2.03;1.70;;;4.90;99.90;;;;;;7406410;19;20135;-80
2024/01/17 10:49:14;;;;;;;1.20;1.10;;;4.80;99.90;;;;;;7400826;19;20171;-82
2024/01/17 10:51:49;;;;;;;2.23;2.00;;;4.80;99.90;;;;;;7393155;19;20560;-79
2024/01/17 10:54:20;;;;;;;1.90;1.57;;;4.90;99.90;;;;;;7392295;19;20245;-79
2024/01/17 10:56:52;;;;;;;1.50;1.40;;;4.90;99.90;;;;;;7393172;19;20613;-80
2024/01/17 10:59:20;;;;;;;1.73;1.63;;;4.90;99.90;;;;;;7390420;19;20228;-80
2024/01/17 11:01:51;;;;;;;2.67;1.60;;;5.00;99.90;;;;;;7394314;19;20137;-79
2024/01/17 11:04:20;;;;;;;1.53;1.03;;;4.90;99.90;;;;;;7394131;19;20181;-80
2024/01/17 11:06:47;;;;;;;1.10;1.00;;;4.90;99.90;;;;;;7396320;19;21542;-81
2024/01/17 11:09:15;;;;;;;1.20;1.10;;;4.70;99.90;;;;;;7392294;19;20150;-78
2024/01/17 11:11:42;;;;;;;1.10;1.00;;;4.70;99.90;;;;;;7396550;19;20463;-82
2024/01/17 11:14:09;;;;;;;0.80;0.80;;;4.80;99.90;;;;;;7392416;19;20462;-77
2024/01/17 11:16:38;;;;;;;3.17;1.87;;;4.90;99.90;;;;;;7394371;19;20134;-78
2024/01/17 11:19:06;;;;;;;2.37;1.23;;;5.00;99.90;;;;;;7395093;19;20146;-80
2024/01/17 11:21:32;;;;;;;1.87;1.77;;;5.10;99.90;;;;;;7393807;19;20483;-81
2024/01/17 11:24:30;;;;;;;1.57;1.37;;;5.30;99.90;;;;;;7391690;19;20141;-79
2024/01/17 11:27:21;;;;;;;1.77;1.67;;;5.30;99.90;;;;;;7390371;19;20139;-77
2024/01/17 11:30:18;;;;;;;0.87;0.87;;;5.30;99.90;;;;;;7393076;19;20637;-76
2024/01/17 11:33:07;;;;;;;1.53;1.40;;;5.40;99.90;;;;;;7394060;19;20138;-77
2024/01/17 11:35:46;;;;;;;1.37;1.20;;;5.40;99.90;;;;;;7392787;19;20142;-76
2024/01/17 11:38:13;;;;;;;1.53;1.13;;;5.30;99.90;;;;;;7391853;19;20138;-76
2024/01/17 11:40:40;;;;;;;1.47;1.13;;;5.40;99.90;;;;;;7393104;19;20127;-76
2024/01/17 11:43:09;;;;;;;1.93;1.73;;;5.40;99.90;;;;;;7393230;19;20147;-75
2024/01/17 11:45:38;;;;;;;1.57;1.07;;;5.40;99.90;;;;;;7393933;19;20135;-76
2024/01/17 11:48:24;;;;;;;0.97;0.93;;;5.30;99.90;;;;;;7390011;19;20131;-76
2024/01/17 11:51:06;;;;;;;2.27;1.03;;;5.40;99.90;;;;;;7389415;19;20270;-75
2024/01/17 11:53:34;;;;;;;1.23;1.13;;;5.30;99.90;;;;;;7390356;19;20620;-75
2024/01/17 11:56:01;;;;;;;0.70;0.70;;;5.40;99.90;;;;;;7391946;19;20139;-74
2024/01/17 11:58:42;;;;;;;2.27;1.40;;;5.50;99.90;;;;;;7388971;19;20151;-74
2024/01/17 12:01:12;;;;;;;1.37;1.27;;;5.50;99.90;;;;;;7392204;19;20588;-74
2024/01/17 12:03:39;;;;;;;1.13;1.10;;;5.30;99.90;;;;;;7390467;19;20142;-76
2024/01/17 12:06:08;;;;;;;2.50;1.43;;;5.40;99.90;;;;;;7388506;19;20138;-77
2024/01/17 12:08:35;;;;;;;1.20;1.00;;;5.60;99.90;;;;;;7390463;19;20162;-75
2024/01/17 12:11:02;;;;;;;5.33;1.70;;;5.60;99.90;;;;;;7390226;19;20138;-75
2024/01/17 12:13:27;;;;;;;2.53;1.30;;;6.00;99.90;;;;;;7389655;19;20140;-75
2024/01/17 12:15:55;;;;;;;2.00;1.73;;;6.40;99.90;;;;;;7392661;19;20491;-74
2024/01/17 12:18:22;;;;;;;0.87;0.87;;;6.60;99.90;;;;;;7389039;19;20206;-75
2024/01/17 12:20:49;;;;;;;2.27;1.57;;;6.90;99.90;;;;;;7389679;19;20179;-74
2024/01/17 12:23:17;;;;;;;1.20;1.10;;;7.10;99.90;;;;;;7388255;19;20138;-76
2024/01/17 12:25:49;;;;;;;1.20;1.13;;;7.30;99.90;;;;;;7389973;19;20151;-75
2024/01/17 12:28:26;;;;;;;1.40;1.30;;;6.90;99.90;;;;;;7389952;19;20135;-75
2024/01/17 12:30:59;;;;;;;1.63;1.53;;;6.80;99.90;;;;;;7389768;19;20146;-76
2024/01/17 12:33:27;;;;;;;2.23;1.50;;;6.60;99.90;;;;;;7388328;19;20251;-74
2024/01/17 12:35:54;;;;;;;0.90;0.70;;;6.40;99.90;;;;;;7390143;19;20126;-77
2024/01/17 12:38:20;;;;;;;2.77;1.60;;;6.30;99.90;;;;;;7386486;19;20151;-75
2024/01/17 12:40:50;;;;;;;1.40;0.83;;;6.30;99.90;;;;;;7391170;19;20138;-75
2024/01/17 12:43:20;;;;;;;0.60;0.60;;;6.20;99.90;;;;;;7388418;19;20651;-75
2024/01/17 12:45:47;;;;;;;0.80;0.80;;;6.30;99.90;;;;;;7389723;19;20880;-75
2024/01/17 12:48:17;;;;;;;1.80;0.90;;;6.30;99.90;;;;;;7391558;19;20203;-77
2024/01/17 12:51:00;;;;;;;1.07;1.03;;;6.20;99.90;;;;;;7390354;19;20151;-76
2024/01/17 12:53:32;;;;;;;0.70;0.70;;;6.20;99.90;;;;;;7389235;19;20179;-75
2024/01/17 12:56:00;;;;;;;0.80;0.80;;;6.20;99.90;;;;;;7389041;19;20796;-75
2024/01/17 12:58:31;;;;;;;1.60;1.07;;;6.30;99.90;;;;;;7386363;19;20150;-75